createdAt,value
2018-08-09T00:01:11.309Z,57.02
2018-08-09T00:03:39.781Z,57.03
2018-08-09T00:06:08.325Z,57.85
2018-08-09T00:08:36.861Z,58.21
2018-08-09T00:11:05.364Z,58.43
2018-08-09T00:13:33.909Z,58.48
2018-08-09T00:16:02.407Z,58.91
2018-08-09T00:18:30.971Z,58.83
2018-08-09T00:20:59.465Z,58.39
2018-08-09T00:23:27.981Z,58.85
2018-08-09T00:25:56.539Z,58.70
2018-08-09T00:28:25.051Z,58.75
2018-08-09T00:30:53.593Z,58.75
2018-08-09T00:33:22.175Z,58.88
2018-08-09T00:35:50.726Z,59.16
2018-08-09T00:38:20.053Z,59.49
2018-08-09T00:40:48.598Z,59.80
2018-08-09T00:43:17.148Z,59.97
2018-08-09T00:45:45.682Z,60.03
2018-08-09T00:48:14.217Z,60.81
2018-08-09T00:50:42.773Z,60.66
2018-08-09T00:53:11.321Z,61.04
2018-08-09T00:55:39.868Z,61.68
2018-08-09T00:58:08.417Z,62.11
2018-08-09T01:00:36.958Z,61.48
2018-08-09T01:03:05.834Z,61.50
2018-08-09T01:05:34.353Z,61.25
2018-08-09T01:08:02.865Z,60.87
2018-08-09T01:10:31.388Z,60.90
2018-08-09T01:12:59.932Z,61.28
2018-08-09T01:15:28.519Z,60.89
2018-08-09T01:17:57.034Z,61.43
2018-08-09T01:20:25.541Z,62.41
2018-08-09T01:22:54.163Z,63.04
2018-08-09T01:25:22.648Z,63.08
2018-08-09T01:27:51.220Z,65.28
2018-08-09T01:30:19.752Z,65.01
2018-08-09T01:32:48.291Z,64.65
2018-08-09T01:35:16.797Z,65.52
2018-08-09T01:37:45.339Z,66.18
2018-08-09T01:40:13.837Z,66.13
2018-08-09T01:42:53.517Z,66.16
2018-08-09T01:45:22.063Z,66.39
2018-08-09T01:47:50.599Z,68.15
2018-08-09T01:50:19.131Z,67.93
2018-08-09T01:52:47.665Z,68.49
2018-08-09T01:55:16.207Z,69.02
2018-08-09T01:57:44.759Z,68.24
2018-08-09T02:00:13.290Z,68.62
2018-08-09T02:02:41.724Z,69.03
2018-08-09T02:05:10.809Z,69.10
2018-08-09T02:07:39.327Z,69.78
2018-08-09T02:10:07.884Z,69.46
2018-08-09T02:12:36.356Z,68.71
2018-08-09T02:15:05.186Z,69.42
2018-08-09T02:17:33.689Z,68.68
2018-08-09T02:20:02.301Z,68.85
2018-08-09T02:22:30.797Z,68.95
2018-08-09T02:24:59.325Z,69.06
2018-08-09T02:27:27.827Z,68.76
2018-08-09T02:29:56.332Z,67.93
2018-08-09T02:32:24.829Z,68.42
2018-08-09T02:34:53.357Z,68.58
2018-08-09T02:37:21.889Z,67.97
2018-08-09T02:39:50.404Z,67.75
2018-08-09T02:42:18.933Z,66.99
2018-08-09T02:44:47.417Z,67.07
2018-08-09T02:47:15.961Z,67.79
2018-08-09T02:49:45.483Z,68.27
2018-08-09T02:52:13.993Z,68.00
2018-08-09T02:54:42.520Z,67.99
2018-08-09T02:57:11.049Z,68.74
2018-08-09T02:59:39.581Z,68.34
2018-08-09T03:02:08.097Z,68.55
2018-08-09T03:04:36.634Z,68.51
2018-08-09T03:07:05.373Z,68.48
2018-08-09T03:09:33.872Z,68.40
2018-08-09T03:12:02.358Z,68.32
2018-08-09T03:14:30.900Z,68.45
2018-08-09T03:16:59.433Z,68.80
2018-08-09T03:19:27.988Z,68.50
2018-08-09T03:21:56.553Z,68.69
2018-08-09T03:24:25.130Z,68.28
2018-08-09T03:26:53.610Z,68.16
2018-08-09T03:29:22.104Z,68.25
2018-08-09T03:31:50.614Z,68.67
2018-08-09T03:34:19.093Z,68.68
2018-08-09T03:36:47.642Z,68.65
2018-08-09T03:39:16.156Z,68.38
2018-08-09T03:41:44.682Z,68.40
2018-08-09T03:44:13.221Z,68.35
2018-08-09T03:46:41.760Z,68.45
2018-08-09T03:49:10.280Z,68.75
2018-08-09T03:51:38.812Z,68.65
2018-08-09T03:54:07.302Z,68.61
2018-08-09T03:56:35.837Z,68.83
2018-08-09T04:00:33.488Z,68.69
2018-08-09T04:03:01.991Z,68.06
2018-08-09T04:05:30.549Z,67.93
2018-08-09T04:07:59.090Z,67.55
2018-08-09T04:10:27.833Z,66.85
2018-08-09T04:12:56.386Z,66.19
2018-08-09T04:15:24.934Z,65.88
2018-08-09T04:17:53.527Z,65.73
2018-08-09T04:20:22.094Z,65.55
2018-08-09T04:22:50.552Z,66.53
2018-08-09T04:25:19.128Z,66.69
2018-08-09T04:27:47.701Z,66.07
2018-08-09T04:30:16.344Z,66.31
2018-08-09T04:32:45.366Z,65.81
2018-08-09T04:35:13.926Z,65.64
2018-08-09T04:37:42.439Z,65.86
2018-08-09T04:40:11.029Z,66.26
2018-08-09T04:42:39.587Z,66.18
2018-08-09T04:45:08.906Z,65.90
2018-08-09T04:47:37.681Z,65.79
2018-08-09T04:50:06.853Z,65.72
2018-08-09T04:52:35.778Z,65.83
2018-08-09T04:55:04.420Z,65.48
2018-08-09T04:57:33.033Z,65.12
2018-08-09T05:00:01.602Z,64.99
2018-08-09T05:02:30.500Z,65.28
2018-08-09T05:04:59.033Z,65.59
2018-08-09T05:07:27.578Z,65.93
2018-08-09T05:09:58.069Z,65.91
2018-08-09T05:12:26.613Z,65.75
2018-08-09T05:14:56.176Z,66.45
2018-08-09T05:17:24.734Z,65.71
2018-08-09T05:19:53.276Z,65.55
2018-08-09T05:22:21.839Z,65.63
2018-08-09T05:24:50.376Z,65.73
2018-08-09T05:27:18.897Z,65.56
2018-08-09T05:29:47.412Z,65.03
2018-08-09T05:32:16.017Z,64.87
2018-08-09T05:34:44.723Z,64.48
2018-08-09T05:37:13.265Z,64.08
2018-08-09T05:39:41.756Z,63.61
2018-08-09T05:42:10.295Z,63.14
2018-08-09T05:44:38.804Z,62.41
2018-08-09T05:47:07.377Z,61.90
2018-08-09T05:49:35.858Z,61.50
2018-08-09T05:52:04.483Z,60.62
2018-08-09T05:54:33.469Z,59.86
2018-08-09T05:57:02.027Z,58.92
2018-08-09T05:59:30.644Z,58.31
2018-08-09T06:01:59.280Z,57.54
2018-08-09T06:04:27.786Z,57.74
2018-08-09T06:06:56.853Z,57.98
2018-08-09T06:09:25.437Z,57.43
2018-08-09T06:11:54.001Z,56.83
2018-08-09T06:14:22.520Z,56.93
2018-08-09T06:16:51.137Z,57.40
2018-08-09T06:19:19.682Z,56.84
2018-08-09T06:21:48.256Z,56.52
2018-08-09T06:24:16.803Z,55.61
2018-08-09T06:26:45.455Z,55.47
2018-08-09T06:29:13.953Z,54.47
2018-08-09T06:31:42.525Z,54.06
2018-08-09T06:34:11.045Z,53.48
2018-08-09T06:36:39.593Z,53.09
2018-08-09T06:39:08.961Z,51.93
2018-08-09T06:41:38.484Z,51.57
2018-08-09T06:44:07.049Z,51.41
2018-08-09T06:46:35.560Z,51.30
2018-08-09T06:49:04.129Z,52.01
2018-08-09T06:51:32.644Z,51.30
2018-08-09T06:54:01.230Z,51.02
2018-08-09T06:56:30.153Z,50.84
2018-08-09T06:58:59.024Z,50.67
2018-08-09T07:01:27.532Z,50.22
2018-08-09T07:03:56.533Z,48.41
2018-08-09T07:06:25.018Z,47.82
2018-08-09T07:08:53.637Z,47.32
2018-08-09T07:11:22.177Z,47.44
2018-08-09T07:13:50.766Z,47.84
2018-08-09T07:16:19.253Z,47.89
2018-08-09T07:18:47.789Z,46.71
2018-08-09T07:21:16.498Z,47.64
2018-08-09T07:23:45.041Z,47.75
2018-08-09T07:26:13.577Z,46.26
2018-08-09T07:28:42.475Z,44.31
2018-08-09T07:31:11.325Z,42.58
2018-08-09T07:33:39.969Z,41.65
2018-08-09T07:36:08.514Z,39.68
2018-08-09T07:38:37.089Z,37.40
2018-08-09T07:41:05.637Z,34.11
2018-08-09T07:43:34.170Z,31.76
2018-08-09T07:46:03.305Z,30.05
2018-08-09T07:48:31.893Z,28.27
2018-08-09T07:51:00.377Z,27.93
2018-08-09T07:53:29.518Z,25.45
2018-08-09T07:55:58.037Z,24.74
2018-08-09T07:58:27.122Z,22.95
2018-08-09T08:00:56.604Z,25.01
2018-08-09T08:03:25.176Z,24.09
2018-08-09T08:05:53.695Z,25.41
2018-08-09T08:08:22.286Z,27.79
2018-08-09T08:10:50.795Z,27.37
2018-08-09T08:13:20.517Z,24.01
2018-08-09T08:15:49.063Z,24.35
2018-08-09T08:18:17.603Z,27.39
2018-08-09T08:20:46.171Z,26.85
2018-08-09T08:23:14.732Z,26.18
2018-08-09T08:25:43.265Z,26.80
2018-08-09T08:28:11.880Z,24.96
2018-08-09T08:30:40.427Z,23.87
2018-08-09T08:33:08.976Z,21.95
2018-08-09T08:35:37.457Z,21.54
2018-08-09T08:38:06.248Z,22.17
2018-08-09T08:40:34.745Z,20.94
2018-08-09T08:43:03.303Z,20.62
2018-08-09T08:45:31.835Z,18.77
2018-08-09T08:48:00.412Z,18.82
2018-08-09T08:50:28.938Z,17.99
2018-08-09T08:52:57.446Z,21.60
2018-08-09T08:55:25.991Z,21.16
2018-08-09T08:57:54.555Z,20.13
2018-08-09T09:00:23.097Z,19.76
2018-08-09T09:02:55.016Z,20.24
2018-08-09T09:05:23.596Z,21.99
2018-08-09T09:07:55.380Z,22.46
2018-08-09T09:10:23.943Z,21.76
2018-08-09T09:12:52.489Z,21.02
2018-08-09T09:15:24.769Z,21.13
2018-08-09T09:17:53.309Z,19.41
2018-08-09T09:20:21.823Z,19.71
2018-08-09T09:22:50.338Z,21.49
2018-08-09T09:25:18.853Z,21.59
2018-08-09T09:27:47.336Z,20.60
2018-08-09T09:30:17.353Z,17.71
2018-08-09T09:32:46.109Z,16.24
2018-08-09T09:35:14.630Z,14.94
2018-08-09T09:37:43.735Z,15.13
2018-08-09T09:40:12.285Z,16.02
2018-08-09T09:42:41.541Z,17.48
2018-08-09T09:45:15.890Z,18.77
2018-08-09T09:47:49.078Z,17.68
2018-08-09T09:50:17.689Z,16.06
2018-08-09T09:52:48.301Z,14.95
2018-08-09T09:55:16.826Z,14.88
2018-08-09T09:57:45.341Z,14.54
2018-08-09T10:00:19.154Z,14.48
2018-08-09T10:02:47.610Z,14.37
2018-08-09T10:05:16.460Z,14.17
2018-08-09T10:07:44.926Z,15.97
2018-08-09T10:10:13.449Z,16.41
2018-08-09T10:12:42.810Z,16.61
2018-08-09T10:15:11.525Z,16.76
2018-08-09T10:17:39.993Z,18.15
2018-08-09T10:20:09.005Z,18.24
2018-08-09T10:22:37.788Z,17.55
2018-08-09T10:25:06.916Z,15.57
2018-08-09T10:27:35.406Z,16.69
2018-08-09T10:30:04.017Z,18.95
2018-08-09T10:32:32.497Z,18.99
2018-08-09T10:35:01.052Z,19.35
2018-08-09T10:37:29.866Z,17.70
2018-08-09T10:39:58.447Z,17.69
2018-08-09T10:42:26.985Z,17.38
2018-08-09T10:44:55.579Z,17.49
2018-08-09T10:47:24.089Z,18.85
2018-08-09T10:49:52.605Z,19.41
2018-08-09T10:52:21.143Z,20.39
2018-08-09T10:54:49.644Z,22.32
2018-08-09T10:57:18.162Z,22.29
2018-08-09T10:59:46.725Z,21.22
2018-08-09T11:02:15.254Z,20.77
2018-08-09T11:04:44.200Z,20.51
2018-08-09T11:07:13.101Z,21.18
2018-08-09T11:09:41.637Z,19.48
2018-08-09T11:13:34.574Z,17.35
2018-08-09T11:16:03.102Z,17.47
2018-08-09T11:18:31.801Z,19.07
2018-08-09T11:21:00.535Z,19.92
2018-08-09T11:23:29.085Z,19.68
2018-08-09T11:25:58.424Z,17.55
2018-08-09T11:28:26.976Z,17.82
2018-08-09T11:30:55.837Z,19.19
2018-08-09T11:33:24.801Z,19.95
2018-08-09T11:35:53.496Z,20.07
2018-08-09T11:38:22.047Z,19.82
2018-08-09T11:40:50.729Z,21.41
2018-08-09T11:43:19.233Z,19.05
2018-08-09T11:45:47.849Z,16.70
2018-08-09T11:48:16.413Z,16.56
2018-08-09T11:50:45.291Z,18.53
2018-08-09T11:53:15.355Z,17.94
2018-08-09T11:55:43.897Z,17.57
2018-08-09T11:58:12.490Z,16.80
2018-08-09T12:00:42.253Z,17.28
2018-08-09T12:03:10.781Z,17.53
2018-08-09T12:05:39.340Z,18.39
2018-08-09T12:08:07.870Z,17.84
2018-08-09T12:10:36.381Z,18.32
2018-08-09T12:13:04.949Z,17.50
2018-08-09T12:15:33.545Z,17.29
2018-08-09T12:18:02.072Z,18.28
2018-08-09T12:20:30.684Z,18.36
2018-08-09T12:22:59.197Z,16.71
2018-08-09T12:25:27.740Z,15.95
2018-08-09T12:27:56.604Z,19.75
2018-08-09T12:30:25.111Z,20.93
2018-08-09T12:32:53.671Z,21.02
2018-08-09T12:35:22.150Z,21.46
2018-08-09T12:37:50.733Z,20.06
2018-08-09T12:40:19.221Z,20.21
2018-08-09T12:42:47.772Z,19.72
2018-08-09T12:45:16.268Z,19.50
2018-08-09T12:47:44.801Z,18.35
2018-08-09T12:50:14.416Z,19.20
2018-08-09T12:52:43.994Z,21.42
2018-08-09T12:55:13.696Z,20.02
2018-08-09T12:57:42.616Z,19.48
2018-08-09T13:00:13.078Z,19.97
2018-08-09T13:02:41.982Z,19.38
2018-08-09T13:05:11.827Z,19.53
2018-08-09T13:07:40.797Z,19.39
2018-08-09T13:10:15.986Z,17.98
2018-08-09T13:12:44.547Z,16.94
2018-08-09T13:15:14.162Z,18.12
2018-08-09T13:17:43.663Z,18.93
2018-08-09T13:20:15.202Z,18.37
2018-08-09T13:22:43.744Z,17.72
2018-08-09T13:25:12.357Z,17.83
2018-08-09T13:27:41.108Z,17.95
2018-08-09T13:30:12.233Z,16.53
2018-08-09T13:32:41.069Z,15.12
2018-08-09T13:35:09.925Z,14.98
2018-08-09T13:37:38.507Z,15.85
2018-08-09T13:40:10.733Z,15.94
2018-08-09T13:42:42.573Z,14.60
2018-08-09T13:45:13.640Z,13.72
2018-08-09T13:47:42.469Z,14.08
2018-08-09T13:50:11.780Z,16.36
2018-08-09T13:52:41.168Z,15.47
2018-08-09T13:56:36.680Z,16.34
2018-08-09T13:59:05.246Z,17.49
2018-08-09T14:01:33.814Z,17.49
2018-08-09T14:04:02.354Z,15.34
2018-08-09T14:06:30.821Z,14.68
2018-08-09T14:08:59.408Z,14.16
2018-08-09T14:11:27.998Z,16.08
2018-08-09T14:13:56.540Z,16.94
2018-08-09T14:16:25.064Z,17.52
2018-08-09T14:18:53.641Z,17.92
2018-08-09T14:21:22.145Z,19.12
2018-08-09T14:23:50.855Z,19.09
2018-08-09T14:26:19.378Z,17.84
2018-08-09T14:28:47.959Z,18.73
2018-08-09T14:31:18.608Z,18.49
2018-08-09T14:33:47.163Z,17.98
2018-08-09T14:36:15.643Z,17.76
2018-08-09T14:38:44.305Z,18.68
2018-08-09T14:41:13.242Z,18.90
2018-08-09T14:43:41.768Z,18.80
2018-08-09T14:46:10.267Z,17.96
2018-08-09T14:48:38.796Z,16.39
2018-08-09T14:51:07.337Z,14.85
2018-08-09T14:53:35.917Z,15.20
2018-08-09T14:56:04.492Z,14.12
2018-08-09T14:58:33.048Z,15.10
2018-08-09T15:01:01.546Z,17.17
2018-08-09T15:03:30.105Z,18.43
2018-08-09T15:05:58.650Z,17.15
2018-08-09T15:08:27.156Z,16.68
2018-08-09T15:10:55.679Z,16.46
2018-08-09T15:13:24.232Z,15.20
2018-08-09T15:15:52.777Z,16.42
2018-08-09T15:18:21.261Z,17.20
2018-08-09T15:20:49.744Z,17.42
2018-08-09T15:23:18.302Z,17.15
2018-08-09T15:25:46.797Z,17.93
2018-08-09T15:28:15.367Z,18.38
2018-08-09T15:30:43.834Z,19.11
2018-08-09T15:33:12.333Z,19.39
2018-08-09T15:35:40.840Z,20.15
2018-08-09T15:38:09.444Z,19.08
2018-08-09T15:40:37.961Z,18.31
2018-08-09T15:43:06.508Z,17.13
2018-08-09T15:45:35.022Z,16.03
2018-08-09T15:48:03.609Z,15.68
2018-08-09T15:50:32.171Z,15.12
2018-08-09T15:53:00.704Z,16.28
2018-08-09T15:55:29.192Z,17.09
2018-08-09T15:57:57.789Z,18.80
2018-08-09T16:00:26.342Z,19.74
2018-08-09T16:02:54.858Z,19.78
2018-08-09T16:05:23.428Z,20.64
2018-08-09T16:07:51.976Z,20.92
2018-08-09T16:10:20.536Z,20.17
2018-08-09T16:12:49.102Z,17.67
2018-08-09T16:15:18.977Z,17.74
2018-08-09T16:17:48.369Z,17.83
2018-08-09T16:20:17.030Z,18.81
2018-08-09T16:22:46.269Z,19.51
2018-08-09T16:25:17.213Z,19.73
2018-08-09T16:27:45.845Z,19.31
2018-08-09T16:30:18.058Z,18.83
2018-08-09T16:32:46.603Z,17.93
2018-08-09T16:35:15.347Z,16.54
2018-08-09T16:37:44.584Z,16.21
2018-08-09T16:40:18.713Z,16.25
2018-08-09T16:42:47.745Z,16.35
2018-08-09T16:45:17.496Z,15.90
2018-08-09T16:47:46.073Z,15.52
2018-08-09T16:50:19.841Z,15.76
2018-08-09T16:52:50.249Z,15.14
2018-08-09T16:55:19.697Z,15.35
2018-08-09T16:57:48.401Z,16.21
2018-08-09T17:00:18.357Z,15.82
2018-08-09T17:02:46.891Z,15.26
2018-08-09T17:05:18.528Z,14.60
2018-08-09T17:07:47.189Z,14.82
2018-08-09T17:10:18.491Z,15.50
2018-08-09T17:12:47.272Z,16.03
2018-08-09T17:15:21.365Z,15.66
2018-08-09T17:17:50.033Z,16.57
2018-08-09T17:20:24.760Z,17.73
2018-08-09T17:22:53.357Z,18.28
2018-08-09T17:25:21.937Z,18.33
2018-08-09T17:27:50.910Z,18.99
2018-08-09T17:30:21.094Z,18.80
2018-08-09T17:32:49.600Z,18.10
2018-08-09T17:35:18.785Z,18.29
2018-08-09T17:37:47.420Z,18.38
2018-08-09T17:40:22.821Z,18.40
2018-08-09T17:42:52.289Z,18.95
2018-08-09T17:45:25.660Z,19.31
2018-08-09T17:47:54.506Z,19.96
2018-08-09T17:50:23.393Z,20.91
2018-08-09T17:52:51.952Z,21.98
2018-08-09T17:55:20.494Z,22.26
2018-08-09T17:57:49.058Z,22.67
2018-08-09T18:00:23.984Z,23.15
2018-08-09T18:02:52.953Z,23.75
2018-08-09T18:05:21.618Z,23.90
2018-08-09T18:07:50.515Z,24.10
2018-08-09T18:10:27.162Z,24.17
2018-08-09T18:12:56.090Z,24.91
2018-08-09T18:15:26.001Z,25.19
2018-08-09T18:17:55.114Z,25.62
2018-08-09T18:20:29.169Z,25.54
2018-08-09T18:22:58.101Z,26.29
2018-08-09T18:25:30.054Z,26.97
2018-08-09T18:27:58.744Z,27.03
2018-08-09T18:30:27.302Z,28.97
2018-08-09T18:32:56.769Z,30.03
2018-08-09T18:35:25.333Z,31.60
2018-08-09T18:37:54.166Z,33.21
2018-08-09T18:40:24.907Z,33.90
2018-08-09T18:42:53.566Z,34.13
2018-08-09T18:45:22.704Z,34.64
2018-08-09T18:47:51.397Z,34.55
2018-08-09T18:50:26.351Z,35.12
2018-08-09T18:52:54.987Z,34.98
2018-08-09T18:55:23.856Z,35.58
2018-08-09T18:57:52.496Z,35.82
2018-08-09T19:00:26.951Z,36.52
2018-08-09T19:02:55.600Z,36.24
2018-08-09T19:05:24.462Z,36.72
2018-08-09T19:07:53.058Z,36.12
2018-08-09T19:10:24.037Z,36.31
2018-08-09T19:12:52.594Z,36.49
2018-08-09T19:15:21.229Z,36.49
2018-08-09T19:17:50.001Z,37.56
2018-08-09T19:20:23.573Z,36.85
2018-08-09T19:22:52.380Z,37.10
2018-08-09T19:25:21.089Z,36.67
2018-08-09T19:27:49.707Z,37.21
2018-08-09T19:30:19.984Z,37.22
2018-08-09T19:32:49.465Z,37.53
2018-08-09T19:35:20.471Z,37.54
2018-08-09T19:37:49.119Z,37.63
2018-08-09T19:40:19.519Z,37.30
2018-08-09T19:42:48.152Z,37.96
2018-08-09T19:45:17.849Z,39.11
2018-08-09T19:47:46.513Z,40.73
2018-08-09T19:50:19.524Z,40.32
2018-08-09T19:52:48.243Z,40.11
2018-08-09T19:55:20.678Z,39.84
2018-08-09T19:57:49.933Z,40.07
2018-08-09T20:00:22.094Z,40.74
2018-08-09T20:02:50.824Z,40.12
2018-08-09T20:05:19.484Z,40.56
2018-08-09T20:07:48.141Z,41.04
2018-08-09T20:10:16.819Z,40.83
2018-08-09T20:12:46.265Z,40.61
2018-08-09T20:15:17.082Z,40.44
2018-08-09T20:17:45.756Z,39.46
2018-08-09T20:20:15.906Z,39.25
2018-08-09T20:22:44.614Z,39.75
2018-08-09T20:25:13.889Z,39.90
2018-08-09T20:27:43.034Z,40.09
2018-08-09T20:30:13.247Z,40.54
2018-08-09T20:32:42.293Z,39.81
2018-08-09T20:35:13.357Z,39.88
2018-08-09T20:37:42.821Z,40.05
2018-08-09T20:40:12.076Z,40.70
2018-08-09T20:42:41.080Z,39.82
2018-08-09T20:45:11.306Z,39.67
2018-08-09T20:47:39.910Z,39.47
2018-08-09T20:50:12.014Z,39.94
2018-08-09T20:52:41.345Z,39.51
2018-08-09T20:55:10.438Z,39.32
2018-08-09T20:57:40.336Z,39.20
2018-08-09T21:00:24.430Z,39.44
2018-08-09T21:02:54.359Z,39.66
2018-08-09T21:05:25.127Z,39.15
2018-08-09T21:07:54.926Z,39.79
2018-08-09T21:10:23.914Z,40.36
2018-08-09T21:12:52.465Z,42.19
2018-08-09T21:15:21.328Z,44.50
2018-08-09T21:17:49.946Z,48.17
2018-08-09T21:20:18.527Z,46.48
2018-08-09T21:22:47.947Z,44.18
2018-08-09T21:25:16.563Z,45.91
2018-08-09T21:27:45.467Z,49.68
2018-08-09T21:30:16.221Z,50.01
2018-08-09T21:32:45.414Z,50.21
2018-08-09T21:35:13.935Z,50.42
2018-08-09T21:37:43.046Z,50.49
2018-08-09T21:40:12.445Z,50.67
2018-08-09T21:42:41.134Z,53.30
2018-08-09T21:45:12.887Z,51.46
2018-08-09T21:47:41.557Z,52.48
2018-08-09T21:50:12.342Z,51.08
2018-08-09T21:52:41.191Z,52.25
2018-08-09T21:55:10.600Z,48.83
2018-08-09T21:57:39.181Z,50.89
2018-08-09T22:00:39.210Z,48.55
2018-08-09T22:03:07.820Z,50.37
2018-08-09T22:05:41.786Z,51.66
2018-08-09T22:08:15.530Z,50.97
2018-08-09T22:10:49.424Z,51.07
2018-08-09T22:13:23.213Z,51.01
2018-08-09T22:15:57.014Z,48.97
2018-08-09T22:18:30.878Z,49.77
2018-08-09T22:21:04.640Z,50.08
2018-08-09T22:23:33.232Z,49.67
2018-08-09T22:26:02.023Z,50.62
2018-08-09T22:28:30.529Z,51.80
2018-08-09T22:30:59.251Z,52.70
2018-08-09T22:33:27.970Z,53.50
2018-08-09T22:35:56.698Z,52.17
2018-08-09T22:38:25.330Z,53.32
2018-08-09T22:40:53.859Z,55.00
2018-08-09T22:43:22.425Z,53.98
2018-08-09T22:45:50.894Z,54.52
2018-08-09T22:48:19.451Z,54.27
2018-08-09T22:50:48.004Z,54.13
2018-08-09T22:53:17.329Z,55.23
2018-08-09T22:55:46.337Z,57.08
2018-08-09T22:58:15.145Z,57.23
2018-08-09T23:00:43.657Z,57.38
2018-08-09T23:03:13.363Z,58.40
2018-08-09T23:05:41.965Z,58.99
2018-08-09T23:13:32.314Z,60.49
2018-08-09T23:16:02.025Z,59.75
2018-08-09T23:18:30.569Z,59.97
2018-08-09T23:20:59.068Z,59.68
2018-08-09T23:23:27.633Z,60.45
2018-08-09T23:25:56.141Z,61.08
2018-08-09T23:28:24.715Z,61.87
2018-08-09T23:30:53.222Z,61.17
2018-08-09T23:33:24.177Z,62.38
2018-08-09T23:35:52.705Z,62.46
2018-08-09T23:38:21.309Z,62.94
2018-08-09T23:40:49.842Z,62.93
2018-08-09T23:43:18.369Z,63.34
2018-08-09T23:45:46.911Z,62.55
2018-08-09T23:48:15.392Z,63.42
2018-08-09T23:50:43.973Z,64.13
2018-08-09T23:53:12.452Z,63.74
2018-08-09T23:55:40.980Z,65.83
2018-08-09T23:58:09.484Z,64.31
